sensor_id;sensor_type;location;lat;lon;timestamp;temperature;humidity
49218;DHT22;35045;51.194;7.268;2022-08-19T00:00:22;19.00;99.90
49218;DHT22;35045;51.194;7.268;2022-08-19T00:02:48;19.00;99.90
49218;DHT22;35045;51.194;7.268;2022-08-19T00:05:14;19.00;99.90
49218;DHT22;35045;51.194;7.268;2022-08-19T00:07:40;19.00;99.90
49218;DHT22;35045;51.194;7.268;2022-08-19T00:10:07;18.90;99.90
49218;DHT22;35045;51.194;7.268;2022-08-19T00:12:33;18.90;99.90
49218;DHT22;35045;51.194;7.268;2022-08-19T00:14:58;18.90;99.90
49218;DHT22;35045;51.194;7.268;2022-08-19T00:17:23;18.90;99.90
49218;DHT22;35045;51.194;7.268;2022-08-19T00:19:48;19.00;99.90
49218;DHT22;35045;51.194;7.268;2022-08-19T00:22:13;19.00;99.90
49218;DHT22;35045;51.194;7.268;2022-08-19T00:24:39;19.00;99.90
49218;DHT22;35045;51.194;7.268;2022-08-19T00:27:05;18.90;99.90
49218;DHT22;35045;51.194;7.268;2022-08-19T00:29:31;18.90;99.90
49218;DHT22;35045;51.194;7.268;2022-08-19T00:31:56;18.90;99.90
49218;DHT22;35045;51.194;7.268;2022-08-19T00:34:23;18.90;99.90
49218;DHT22;35045;51.194;7.268;2022-08-19T00:36:52;18.90;99.90
49218;DHT22;35045;51.194;7.268;2022-08-19T00:39:17;18.90;99.90
49218;DHT22;35045;51.194;7.268;2022-08-19T00:41:43;18.90;99.90
49218;DHT22;35045;51.194;7.268;2022-08-19T00:44:14;18.80;99.90
49218;DHT22;35045;51.194;7.268;2022-08-19T00:46:42;18.80;99.90
49218;DHT22;35045;51.194;7.268;2022-08-19T00:49:28;18.80;99.90
49218;DHT22;35045;51.194;7.268;2022-08-19T00:51:55;18.80;99.90
49218;DHT22;35045;51.194;7.268;2022-08-19T00:54:22;18.70;99.90
49218;DHT22;35045;51.194;7.268;2022-08-19T00:56:48;18.70;99.90
49218;DHT22;35045;51.194;7.268;2022-08-19T00:59:15;18.70;99.90
49218;DHT22;35045;51.194;7.268;2022-08-19T01:01:42;18.70;99.90
49218;DHT22;35045;51.194;7.268;2022-08-19T01:04:08;18.70;99.90
49218;DHT22;35045;51.194;7.268;2022-08-19T01:06:36;18.70;99.90
49218;DHT22;35045;51.194;7.268;2022-08-19T01:09:02;18.60;99.90
49218;DHT22;35045;51.194;7.268;2022-08-19T01:11:27;18.60;99.90
49218;DHT22;35045;51.194;7.268;2022-08-19T01:13:54;18.60;99.90
49218;DHT22;35045;51.194;7.268;2022-08-19T01:16:20;18.60;99.90
49218;DHT22;35045;51.194;7.268;2022-08-19T01:18:46;18.60;99.90
49218;DHT22;35045;51.194;7.268;2022-08-19T01:21:17;18.50;99.90
49218;DHT22;35045;51.194;7.268;2022-08-19T01:23:44;18.50;99.90
49218;DHT22;35045;51.194;7.268;2022-08-19T01:26:16;18.50;99.90
49218;DHT22;35045;51.194;7.268;2022-08-19T01:28:43;18.50;99.90
49218;DHT22;35045;51.194;7.268;2022-08-19T01:31:16;18.40;99.90
49218;DHT22;35045;51.194;7.268;2022-08-19T01:33:41;18.30;99.90
49218;DHT22;35045;51.194;7.268;2022-08-19T01:36:10;18.30;99.90
49218;DHT22;35045;51.194;7.268;2022-08-19T01:38:37;18.30;99.90
49218;DHT22;35045;51.194;7.268;2022-08-19T01:41:03;18.30;99.90
49218;DHT22;35045;51.194;7.268;2022-08-19T01:43:28;18.30;99.90
49218;DHT22;35045;51.194;7.268;2022-08-19T01:45:53;18.30;99.90
49218;DHT22;35045;51.194;7.268;2022-08-19T01:48:18;18.30;99.90
49218;DHT22;35045;51.194;7.268;2022-08-19T01:50:43;18.30;99.90
49218;DHT22;35045;51.194;7.268;2022-08-19T01:53:10;18.20;99.90
49218;DHT22;35045;51.194;7.268;2022-08-19T01:55:37;18.30;99.90
49218;DHT22;35045;51.194;7.268;2022-08-19T01:58:05;18.30;99.90
49218;DHT22;35045;51.194;7.268;2022-08-19T02:00:32;18.20;99.90
49218;DHT22;35045;51.194;7.268;2022-08-19T02:02:58;18.20;99.90
49218;DHT22;35045;51.194;7.268;2022-08-19T02:05:23;18.20;99.90
49218;DHT22;35045;51.194;7.268;2022-08-19T02:07:48;18.20;99.90
49218;DHT22;35045;51.194;7.268;2022-08-19T02:10:18;18.10;99.90
49218;DHT22;35045;51.194;7.268;2022-08-19T02:12:44;18.10;99.90
49218;DHT22;35045;51.194;7.268;2022-08-19T02:15:10;18.10;99.90
49218;DHT22;35045;51.194;7.268;2022-08-19T02:17:35;18.10;99.90
49218;DHT22;35045;51.194;7.268;2022-08-19T02:20:00;18.10;99.90
49218;DHT22;35045;51.194;7.268;2022-08-19T02:22:26;18.10;99.90
49218;DHT22;35045;51.194;7.268;2022-08-19T02:24:52;18.10;99.90
49218;DHT22;35045;51.194;7.268;2022-08-19T02:27:17;18.10;99.90
49218;DHT22;35045;51.194;7.268;2022-08-19T02:29:43;18.00;99.90
49218;DHT22;35045;51.194;7.268;2022-08-19T02:32:10;18.00;99.90
49218;DHT22;35045;51.194;7.268;2022-08-19T02:34:35;18.00;99.90
49218;DHT22;35045;51.194;7.268;2022-08-19T02:37:00;18.00;99.90
49218;DHT22;35045;51.194;7.268;2022-08-19T02:39:25;18.00;99.90
49218;DHT22;35045;51.194;7.268;2022-08-19T02:41:50;18.10;99.90
49218;DHT22;35045;51.194;7.268;2022-08-19T02:44:16;18.00;99.90
49218;DHT22;35045;51.194;7.268;2022-08-19T02:46:42;18.00;99.90
49218;DHT22;35045;51.194;7.268;2022-08-19T02:49:08;18.00;99.90
49218;DHT22;35045;51.194;7.268;2022-08-19T02:51:38;18.00;99.90
49218;DHT22;35045;51.194;7.268;2022-08-19T02:54:05;18.00;99.90
49218;DHT22;35045;51.194;7.268;2022-08-19T02:56:31;18.00;99.90
49218;DHT22;35045;51.194;7.268;2022-08-19T02:58:57;18.00;99.90
49218;DHT22;35045;51.194;7.268;2022-08-19T03:01:30;18.10;99.90
49218;DHT22;35045;51.194;7.268;2022-08-19T03:03:57;18.10;99.90
49218;DHT22;35045;51.194;7.268;2022-08-19T03:06:22;18.10;99.90
49218;DHT22;35045;51.194;7.268;2022-08-19T03:08:47;18.00;99.90
49218;DHT22;35045;51.194;7.268;2022-08-19T03:11:16;18.00;99.90
49218;DHT22;35045;51.194;7.268;2022-08-19T03:13:41;18.00;99.90
49218;DHT22;35045;51.194;7.268;2022-08-19T03:16:08;17.90;99.90
49218;DHT22;35045;51.194;7.268;2022-08-19T03:18:33;17.90;99.90
49218;DHT22;35045;51.194;7.268;2022-08-19T03:20:58;17.90;99.90
49218;DHT22;35045;51.194;7.268;2022-08-19T03:23:23;17.90;99.90
49218;DHT22;35045;51.194;7.268;2022-08-19T03:25:50;17.90;99.90
49218;DHT22;35045;51.194;7.268;2022-08-19T03:28:16;18.00;99.90
49218;DHT22;35045;51.194;7.268;2022-08-19T03:30:53;17.90;99.90
49218;DHT22;35045;51.194;7.268;2022-08-19T03:33:20;17.90;99.90
49218;DHT22;35045;51.194;7.268;2022-08-19T03:35:45;17.90;99.90
49218;DHT22;35045;51.194;7.268;2022-08-19T03:38:10;17.90;99.90
49218;DHT22;35045;51.194;7.268;2022-08-19T03:40:38;17.90;99.90
49218;DHT22;35045;51.194;7.268;2022-08-19T03:43:03;17.90;99.90
49218;DHT22;35045;51.194;7.268;2022-08-19T03:45:28;17.90;99.90
49218;DHT22;35045;51.194;7.268;2022-08-19T03:47:53;17.90;99.90
49218;DHT22;35045;51.194;7.268;2022-08-19T03:50:19;17.90;99.90
49218;DHT22;35045;51.194;7.268;2022-08-19T03:52:48;17.90;99.90
49218;DHT22;35045;51.194;7.268;2022-08-19T03:55:14;17.90;99.90
49218;DHT22;35045;51.194;7.268;2022-08-19T03:57:40;17.90;99.90
49218;DHT22;35045;51.194;7.268;2022-08-19T04:00:05;17.90;99.90
49218;DHT22;35045;51.194;7.268;2022-08-19T04:02:32;17.90;99.90
49218;DHT22;35045;51.194;7.268;2022-08-19T04:04:57;17.90;99.90
49218;DHT22;35045;51.194;7.268;2022-08-19T04:07:22;17.90;99.90
49218;DHT22;35045;51.194;7.268;2022-08-19T04:09:48;17.80;99.90
49218;DHT22;35045;51.194;7.268;2022-08-19T04:12:13;17.80;99.90
49218;DHT22;35045;51.194;7.268;2022-08-19T04:14:39;17.80;99.90
49218;DHT22;35045;51.194;7.268;2022-08-19T04:17:04;17.70;99.90
49218;DHT22;35045;51.194;7.268;2022-08-19T04:19:30;17.80;99.90
49218;DHT22;35045;51.194;7.268;2022-08-19T04:21:56;17.70;99.90
49218;DHT22;35045;51.194;7.268;2022-08-19T04:24:22;17.70;99.90
49218;DHT22;35045;51.194;7.268;2022-08-19T04:26:47;17.70;99.90
49218;DHT22;35045;51.194;7.268;2022-08-19T04:29:17;17.70;99.90
49218;DHT22;35045;51.194;7.268;2022-08-19T04:31:44;17.70;99.90
49218;DHT22;35045;51.194;7.268;2022-08-19T04:34:11;17.70;99.90
49218;DHT22;35045;51.194;7.268;2022-08-19T04:36:40;17.70;99.90
49218;DHT22;35045;51.194;7.268;2022-08-19T04:39:10;17.70;99.90
49218;DHT22;35045;51.194;7.268;2022-08-19T04:41:35;17.80;99.90
49218;DHT22;35045;51.194;7.268;2022-08-19T04:44:20;17.80;99.90
49218;DHT22;35045;51.194;7.268;2022-08-19T04:46:47;17.80;99.90
49218;DHT22;35045;51.194;7.268;2022-08-19T04:49:12;17.80;99.90
49218;DHT22;35045;51.194;7.268;2022-08-19T04:51:41;17.80;99.90
49218;DHT22;35045;51.194;7.268;2022-08-19T04:54:07;17.70;99.90
49218;DHT22;35045;51.194;7.268;2022-08-19T04:56:32;17.70;99.90
49218;DHT22;35045;51.194;7.268;2022-08-19T04:58:57;17.70;99.90
49218;DHT22;35045;51.194;7.268;2022-08-19T05:01:25;17.80;99.90
49218;DHT22;35045;51.194;7.268;2022-08-19T05:03:51;17.80;99.90
49218;DHT22;35045;51.194;7.268;2022-08-19T05:06:19;17.70;99.90
49218;DHT22;35045;51.194;7.268;2022-08-19T05:08:44;17.80;99.90
49218;DHT22;35045;51.194;7.268;2022-08-19T05:11:23;17.80;99.90
49218;DHT22;35045;51.194;7.268;2022-08-19T05:13:49;17.90;99.90
49218;DHT22;35045;51.194;7.268;2022-08-19T05:16:16;18.00;99.90
49218;DHT22;35045;51.194;7.268;2022-08-19T05:18:41;18.10;99.90
49218;DHT22;35045;51.194;7.268;2022-08-19T05:21:26;18.20;99.90
49218;DHT22;35045;51.194;7.268;2022-08-19T05:24:11;18.20;99.90
49218;DHT22;35045;51.194;7.268;2022-08-19T05:26:41;18.30;99.90
49218;DHT22;35045;51.194;7.268;2022-08-19T05:29:07;18.40;99.90
49218;DHT22;35045;51.194;7.268;2022-08-19T05:31:33;18.40;99.90
49218;DHT22;35045;51.194;7.268;2022-08-19T05:33:58;18.40;99.90
49218;DHT22;35045;51.194;7.268;2022-08-19T05:36:24;18.50;99.90
49218;DHT22;35045;51.194;7.268;2022-08-19T05:38:49;18.60;99.90
49218;DHT22;35045;51.194;7.268;2022-08-19T05:41:14;18.60;99.90
49218;DHT22;35045;51.194;7.268;2022-08-19T05:43:41;18.70;99.90
49218;DHT22;35045;51.194;7.268;2022-08-19T05:46:07;18.70;99.90
49218;DHT22;35045;51.194;7.268;2022-08-19T05:48:34;18.80;99.90
49218;DHT22;35045;51.194;7.268;2022-08-19T05:51:04;18.80;99.90
49218;DHT22;35045;51.194;7.268;2022-08-19T05:53:31;18.80;99.90
49218;DHT22;35045;51.194;7.268;2022-08-19T05:55:56;18.90;99.90
49218;DHT22;35045;51.194;7.268;2022-08-19T05:58:21;18.90;99.90
49218;DHT22;35045;51.194;7.268;2022-08-19T06:00:46;18.90;99.90
49218;DHT22;35045;51.194;7.268;2022-08-19T06:03:11;18.80;99.90
49218;DHT22;35045;51.194;7.268;2022-08-19T06:05:36;18.80;99.90
49218;DHT22;35045;51.194;7.268;2022-08-19T06:08:01;18.80;99.90
49218;DHT22;35045;51.194;7.268;2022-08-19T06:10:26;18.80;99.90
49218;DHT22;35045;51.194;7.268;2022-08-19T06:12:52;18.80;99.90
49218;DHT22;35045;51.194;7.268;2022-08-19T06:15:17;18.80;99.90
49218;DHT22;35045;51.194;7.268;2022-08-19T06:17:43;18.90;99.90
49218;DHT22;35045;51.194;7.268;2022-08-19T06:20:11;18.90;99.90
49218;DHT22;35045;51.194;7.268;2022-08-19T06:22:43;18.90;99.90
49218;DHT22;35045;51.194;7.268;2022-08-19T06:25:09;18.90;99.90
49218;DHT22;35045;51.194;7.268;2022-08-19T06:27:34;19.00;99.90
49218;DHT22;35045;51.194;7.268;2022-08-19T06:29:59;19.10;99.90
49218;DHT22;35045;51.194;7.268;2022-08-19T06:32:24;19.10;99.90
49218;DHT22;35045;51.194;7.268;2022-08-19T06:34:49;19.20;99.90
49218;DHT22;35045;51.194;7.268;2022-08-19T06:37:14;19.20;99.90
49218;DHT22;35045;51.194;7.268;2022-08-19T06:39:42;19.20;99.90
49218;DHT22;35045;51.194;7.268;2022-08-19T06:42:08;19.30;99.90
49218;DHT22;35045;51.194;7.268;2022-08-19T06:44:36;19.20;99.90
49218;DHT22;35045;51.194;7.268;2022-08-19T06:47:07;19.20;99.90
49218;DHT22;35045;51.194;7.268;2022-08-19T06:49:32;19.20;99.90
49218;DHT22;35045;51.194;7.268;2022-08-19T06:51:57;19.30;99.90
49218;DHT22;35045;51.194;7.268;2022-08-19T06:54:23;19.30;99.90
49218;DHT22;35045;51.194;7.268;2022-08-19T06:56:48;19.40;99.90
49218;DHT22;35045;51.194;7.268;2022-08-19T06:59:19;19.50;99.90
49218;DHT22;35045;51.194;7.268;2022-08-19T07:01:50;19.50;99.90
49218;DHT22;35045;51.194;7.268;2022-08-19T07:04:18;19.50;99.90
49218;DHT22;35045;51.194;7.268;2022-08-19T07:06:45;19.50;99.90
49218;DHT22;35045;51.194;7.268;2022-08-19T07:09:13;19.40;99.90
49218;DHT22;35045;51.194;7.268;2022-08-19T07:11:43;19.50;99.90
49218;DHT22;35045;51.194;7.268;2022-08-19T07:14:08;19.50;99.90
49218;DHT22;35045;51.194;7.268;2022-08-19T07:16:34;19.60;99.90
49218;DHT22;35045;51.194;7.268;2022-08-19T07:18:59;19.60;99.90
49218;DHT22;35045;51.194;7.268;2022-08-19T07:21:26;19.70;99.90
49218;DHT22;35045;51.194;7.268;2022-08-19T07:23:52;19.70;99.90
49218;DHT22;35045;51.194;7.268;2022-08-19T07:26:30;19.80;99.90
49218;DHT22;35045;51.194;7.268;2022-08-19T07:28:56;19.90;99.90
49218;DHT22;35045;51.194;7.268;2022-08-19T07:31:27;20.00;99.90
49218;DHT22;35045;51.194;7.268;2022-08-19T07:33:54;20.00;99.90
49218;DHT22;35045;51.194;7.268;2022-08-19T07:36:23;20.10;99.90
49218;DHT22;35045;51.194;7.268;2022-08-19T07:38:50;20.20;99.90
49218;DHT22;35045;51.194;7.268;2022-08-19T07:41:18;20.30;99.90
49218;DHT22;35045;51.194;7.268;2022-08-19T07:43:44;20.30;99.90
49218;DHT22;35045;51.194;7.268;2022-08-19T07:46:11;20.40;99.90
49218;DHT22;35045;51.194;7.268;2022-08-19T07:48:37;20.60;99.90
49218;DHT22;35045;51.194;7.268;2022-08-19T07:51:04;20.60;99.90
49218;DHT22;35045;51.194;7.268;2022-08-19T07:53:31;20.70;99.90
49218;DHT22;35045;51.194;7.268;2022-08-19T07:55:57;20.80;99.90
49218;DHT22;35045;51.194;7.268;2022-08-19T07:58:27;21.00;99.90
49218;DHT22;35045;51.194;7.268;2022-08-19T08:00:52;21.10;99.90
49218;DHT22;35045;51.194;7.268;2022-08-19T08:03:21;21.20;99.90
49218;DHT22;35045;51.194;7.268;2022-08-19T08:06:06;21.30;99.90
49218;DHT22;35045;51.194;7.268;2022-08-19T08:08:49;21.40;99.90
49218;DHT22;35045;51.194;7.268;2022-08-19T08:11:33;21.50;99.90
49218;DHT22;35045;51.194;7.268;2022-08-19T08:13:58;21.60;99.90
49218;DHT22;35045;51.194;7.268;2022-08-19T08:16:23;21.50;99.90
49218;DHT22;35045;51.194;7.268;2022-08-19T08:18:54;21.60;99.90
49218;DHT22;35045;51.194;7.268;2022-08-19T08:21:19;21.50;99.90
49218;DHT22;35045;51.194;7.268;2022-08-19T08:23:44;21.60;99.90
49218;DHT22;35045;51.194;7.268;2022-08-19T08:26:09;21.70;99.90
49218;DHT22;35045;51.194;7.268;2022-08-19T08:28:35;21.80;99.90
49218;DHT22;35045;51.194;7.268;2022-08-19T08:31:02;21.80;99.90
49218;DHT22;35045;51.194;7.268;2022-08-19T08:33:28;22.00;99.90
49218;DHT22;35045;51.194;7.268;2022-08-19T08:35:54;22.10;99.90
49218;DHT22;35045;51.194;7.268;2022-08-19T08:38:19;22.20;99.90
49218;DHT22;35045;51.194;7.268;2022-08-19T08:40:48;22.20;99.90
49218;DHT22;35045;51.194;7.268;2022-08-19T08:46:10;22.20;99.90
49218;DHT22;35045;51.194;7.268;2022-08-19T08:51:20;22.40;99.90
49218;DHT22;35045;51.194;7.268;2022-08-19T08:53:49;22.30;99.90
49218;DHT22;35045;51.194;7.268;2022-08-19T08:56:16;22.30;99.90
49218;DHT22;35045;51.194;7.268;2022-08-19T08:59:06;22.20;99.90
49218;DHT22;35045;51.194;7.268;2022-08-19T09:01:32;22.20;99.90
49218;DHT22;35045;51.194;7.268;2022-08-19T09:03:57;22.40;99.90
49218;DHT22;35045;51.194;7.268;2022-08-19T09:09:18;22.70;99.90
49218;DHT22;35045;51.194;7.268;2022-08-19T09:14:50;22.80;99.90
49218;DHT22;35045;51.194;7.268;2022-08-19T09:17:22;22.80;99.90
49218;DHT22;35045;51.194;7.268;2022-08-19T09:20:03;22.90;99.90
49218;DHT22;35045;51.194;7.268;2022-08-19T09:22:32;22.90;99.90
49218;DHT22;35045;51.194;7.268;2022-08-19T09:24:57;22.80;99.90
49218;DHT22;35045;51.194;7.268;2022-08-19T09:27:23;22.90;99.90
49218;DHT22;35045;51.194;7.268;2022-08-19T09:29:48;22.90;99.90
49218;DHT22;35045;51.194;7.268;2022-08-19T09:32:14;23.10;99.90
49218;DHT22;35045;51.194;7.268;2022-08-19T09:34:39;23.20;99.90
49218;DHT22;35045;51.194;7.268;2022-08-19T09:37:04;23.30;99.90
49218;DHT22;35045;51.194;7.268;2022-08-19T09:39:29;23.40;99.90
49218;DHT22;35045;51.194;7.268;2022-08-19T09:41:55;23.60;99.90
49218;DHT22;35045;51.194;7.268;2022-08-19T09:44:20;23.60;99.90
49218;DHT22;35045;51.194;7.268;2022-08-19T09:46:46;23.60;99.90
49218;DHT22;35045;51.194;7.268;2022-08-19T09:49:15;23.60;99.90
49218;DHT22;35045;51.194;7.268;2022-08-19T09:51:41;23.50;99.90
49218;DHT22;35045;51.194;7.268;2022-08-19T09:54:06;23.50;99.90
49218;DHT22;35045;51.194;7.268;2022-08-19T09:56:32;23.30;99.90
49218;DHT22;35045;51.194;7.268;2022-08-19T09:58:58;23.20;99.90
49218;DHT22;35045;51.194;7.268;2022-08-19T10:01:27;23.20;99.90
49218;DHT22;35045;51.194;7.268;2022-08-19T10:03:54;23.10;99.90
49218;DHT22;35045;51.194;7.268;2022-08-19T10:06:21;23.10;99.90
49218;DHT22;35045;51.194;7.268;2022-08-19T10:08:46;23.30;99.90
49218;DHT22;35045;51.194;7.268;2022-08-19T10:11:11;23.40;99.90
49218;DHT22;35045;51.194;7.268;2022-08-19T10:13:39;23.40;99.90
49218;DHT22;35045;51.194;7.268;2022-08-19T10:16:07;23.30;99.90
49218;DHT22;35045;51.194;7.268;2022-08-19T10:18:34;23.30;99.90
49218;DHT22;35045;51.194;7.268;2022-08-19T10:21:14;23.40;99.90
49218;DHT22;35045;51.194;7.268;2022-08-19T10:23:43;23.30;99.90
49218;DHT22;35045;51.194;7.268;2022-08-19T10:26:10;23.30;99.90
49218;DHT22;35045;51.194;7.268;2022-08-19T10:28:36;23.40;99.90
49218;DHT22;35045;51.194;7.268;2022-08-19T10:31:12;23.50;99.90
49218;DHT22;35045;51.194;7.268;2022-08-19T10:33:39;23.50;99.90
49218;DHT22;35045;51.194;7.268;2022-08-19T10:36:10;23.30;99.90
49218;DHT22;35045;51.194;7.268;2022-08-19T10:38:36;23.40;99.90
49218;DHT22;35045;51.194;7.268;2022-08-19T10:41:10;23.50;99.90
49218;DHT22;35045;51.194;7.268;2022-08-19T10:43:35;23.60;99.90
49218;DHT22;35045;51.194;7.268;2022-08-19T10:46:02;23.70;99.90
49218;DHT22;35045;51.194;7.268;2022-08-19T10:48:29;23.80;99.90
49218;DHT22;35045;51.194;7.268;2022-08-19T10:50:54;24.10;99.90
49218;DHT22;35045;51.194;7.268;2022-08-19T10:53:37;24.20;99.80
49218;DHT22;35045;51.194;7.268;2022-08-19T10:56:02;24.20;99.20
49218;DHT22;35045;51.194;7.268;2022-08-19T10:58:46;24.10;99.10
49218;DHT22;35045;51.194;7.268;2022-08-19T11:01:13;24.40;99.20
49218;DHT22;35045;51.194;7.268;2022-08-19T11:03:38;24.80;98.90
49218;DHT22;35045;51.194;7.268;2022-08-19T11:06:06;25.00;98.30
49218;DHT22;35045;51.194;7.268;2022-08-19T11:08:32;24.90;98.50
49218;DHT22;35045;51.194;7.268;2022-08-19T11:10:59;24.60;98.60
49218;DHT22;35045;51.194;7.268;2022-08-19T11:13:27;24.40;98.50
49218;DHT22;35045;51.194;7.268;2022-08-19T11:16:01;24.50;98.80
49218;DHT22;35045;51.194;7.268;2022-08-19T11:18:27;24.60;98.50
49218;DHT22;35045;51.194;7.268;2022-08-19T11:20:52;24.70;97.90
49218;DHT22;35045;51.194;7.268;2022-08-19T11:23:17;24.70;96.70
49218;DHT22;35045;51.194;7.268;2022-08-19T11:25:42;24.60;97.30
49218;DHT22;35045;51.194;7.268;2022-08-19T11:28:07;24.80;97.60
49218;DHT22;35045;51.194;7.268;2022-08-19T11:30:32;25.10;97.80
49218;DHT22;35045;51.194;7.268;2022-08-19T11:32:57;25.30;96.20
49218;DHT22;35045;51.194;7.268;2022-08-19T11:35:25;25.50;95.90
49218;DHT22;35045;51.194;7.268;2022-08-19T11:37:50;25.60;96.00
49218;DHT22;35045;51.194;7.268;2022-08-19T11:40:16;25.80;96.00
49218;DHT22;35045;51.194;7.268;2022-08-19T11:42:41;25.90;96.20
49218;DHT22;35045;51.194;7.268;2022-08-19T11:45:26;25.70;95.40
49218;DHT22;35045;51.194;7.268;2022-08-19T11:47:52;25.40;95.60
49218;DHT22;35045;51.194;7.268;2022-08-19T11:50:17;25.50;95.80
49218;DHT22;35045;51.194;7.268;2022-08-19T11:52:42;25.60;95.20
49218;DHT22;35045;51.194;7.268;2022-08-19T11:55:09;25.50;94.70
49218;DHT22;35045;51.194;7.268;2022-08-19T11:57:34;25.50;94.20
49218;DHT22;35045;51.194;7.268;2022-08-19T11:59:59;25.70;94.60
49218;DHT22;35045;51.194;7.268;2022-08-19T12:02:24;26.00;94.60
49218;DHT22;35045;51.194;7.268;2022-08-19T12:04:49;26.10;94.90
49218;DHT22;35045;51.194;7.268;2022-08-19T12:07:14;26.20;94.10
49218;DHT22;35045;51.194;7.268;2022-08-19T12:09:39;26.40;93.40
49218;DHT22;35045;51.194;7.268;2022-08-19T12:12:04;26.60;93.50
49218;DHT22;35045;51.194;7.268;2022-08-19T12:14:29;26.80;92.40
49218;DHT22;35045;51.194;7.268;2022-08-19T12:16:56;27.10;92.30
49218;DHT22;35045;51.194;7.268;2022-08-19T12:19:22;27.00;93.30
49218;DHT22;35045;51.194;7.268;2022-08-19T12:21:47;27.00;92.60
49218;DHT22;35045;51.194;7.268;2022-08-19T12:24:12;27.10;92.60
49218;DHT22;35045;51.194;7.268;2022-08-19T12:26:37;27.30;93.00
49218;DHT22;35045;51.194;7.268;2022-08-19T12:29:03;27.50;92.30
49218;DHT22;35045;51.194;7.268;2022-08-19T12:31:28;27.80;92.40
49218;DHT22;35045;51.194;7.268;2022-08-19T12:33:54;27.90;91.80
49218;DHT22;35045;51.194;7.268;2022-08-19T12:36:19;27.90;91.70
49218;DHT22;35045;51.194;7.268;2022-08-19T12:38:44;27.80;91.60
49218;DHT22;35045;51.194;7.268;2022-08-19T12:41:13;27.80;91.60
49218;DHT22;35045;51.194;7.268;2022-08-19T12:43:38;28.00;91.10
49218;DHT22;35045;51.194;7.268;2022-08-19T12:46:06;28.20;91.30
49218;DHT22;35045;51.194;7.268;2022-08-19T12:48:32;28.20;91.70
49218;DHT22;35045;51.194;7.268;2022-08-19T12:50:58;28.00;91.60
49218;DHT22;35045;51.194;7.268;2022-08-19T12:53:23;27.70;91.30
49218;DHT22;35045;51.194;7.268;2022-08-19T12:55:55;27.80;91.10
49218;DHT22;35045;51.194;7.268;2022-08-19T12:58:21;27.90;91.40
49218;DHT22;35045;51.194;7.268;2022-08-19T13:00:46;28.10;91.30
49218;DHT22;35045;51.194;7.268;2022-08-19T13:03:11;28.00;91.00
49218;DHT22;35045;51.194;7.268;2022-08-19T13:05:36;28.10;90.70
49218;DHT22;35045;51.194;7.268;2022-08-19T13:08:01;28.00;90.10
49218;DHT22;35045;51.194;7.268;2022-08-19T13:10:30;27.80;90.10
49218;DHT22;35045;51.194;7.268;2022-08-19T13:12:57;27.80;88.80
49218;DHT22;35045;51.194;7.268;2022-08-19T13:15:24;28.00;88.30
49218;DHT22;35045;51.194;7.268;2022-08-19T13:17:50;28.50;88.90
49218;DHT22;35045;51.194;7.268;2022-08-19T13:20:17;28.70;86.00
49218;DHT22;35045;51.194;7.268;2022-08-19T13:22:43;28.80;86.10
49218;DHT22;35045;51.194;7.268;2022-08-19T13:25:09;28.90;86.40
49218;DHT22;35045;51.194;7.268;2022-08-19T13:27:35;29.20;86.00
49218;DHT22;35045;51.194;7.268;2022-08-19T13:30:02;29.30;86.10
49218;DHT22;35045;51.194;7.268;2022-08-19T13:32:46;29.50;85.50
49218;DHT22;35045;51.194;7.268;2022-08-19T13:35:29;29.40;85.80
49218;DHT22;35045;51.194;7.268;2022-08-19T13:37:54;28.80;87.00
49218;DHT22;35045;51.194;7.268;2022-08-19T13:40:22;28.80;87.60
49218;DHT22;35045;51.194;7.268;2022-08-19T13:42:50;29.00;86.90
49218;DHT22;35045;51.194;7.268;2022-08-19T13:45:18;29.10;86.70
49218;DHT22;35045;51.194;7.268;2022-08-19T13:47:46;29.20;86.90
49218;DHT22;35045;51.194;7.268;2022-08-19T13:50:15;29.20;85.90
49218;DHT22;35045;51.194;7.268;2022-08-19T13:52:40;28.80;86.50
49218;DHT22;35045;51.194;7.268;2022-08-19T13:55:07;28.90;86.50
49218;DHT22;35045;51.194;7.268;2022-08-19T13:57:32;29.20;86.30
49218;DHT22;35045;51.194;7.268;2022-08-19T13:59:58;29.30;84.20
49218;DHT22;35045;51.194;7.268;2022-08-19T14:02:24;29.40;83.80
49218;DHT22;35045;51.194;7.268;2022-08-19T14:04:49;29.80;83.40
49218;DHT22;35045;51.194;7.268;2022-08-19T14:07:14;30.20;82.20
49218;DHT22;35045;51.194;7.268;2022-08-19T14:09:39;30.50;81.30
49218;DHT22;35045;51.194;7.268;2022-08-19T14:12:04;30.40;80.70
49218;DHT22;35045;51.194;7.268;2022-08-19T14:14:29;29.80;81.10
49218;DHT22;35045;51.194;7.268;2022-08-19T14:16:54;29.10;82.20
49218;DHT22;35045;51.194;7.268;2022-08-19T14:19:19;28.50;83.20
49218;DHT22;35045;51.194;7.268;2022-08-19T14:21:44;28.40;83.40
49218;DHT22;35045;51.194;7.268;2022-08-19T14:24:10;29.00;83.50
49218;DHT22;35045;51.194;7.268;2022-08-19T14:26:35;29.30;82.40
49218;DHT22;35045;51.194;7.268;2022-08-19T14:29:00;28.90;81.70
49218;DHT22;35045;51.194;7.268;2022-08-19T14:31:26;28.30;81.10
49218;DHT22;35045;51.194;7.268;2022-08-19T14:33:51;28.20;82.20
49218;DHT22;35045;51.194;7.268;2022-08-19T14:36:17;28.30;81.70
49218;DHT22;35045;51.194;7.268;2022-08-19T14:38:43;28.20;81.30
49218;DHT22;35045;51.194;7.268;2022-08-19T14:41:16;27.90;81.70
49218;DHT22;35045;51.194;7.268;2022-08-19T14:43:43;27.80;82.10
49218;DHT22;35045;51.194;7.268;2022-08-19T14:46:10;28.30;82.20
49218;DHT22;35045;51.194;7.268;2022-08-19T14:48:37;28.80;81.40
49218;DHT22;35045;51.194;7.268;2022-08-19T14:51:03;29.20;80.80
49218;DHT22;35045;51.194;7.268;2022-08-19T14:53:28;29.10;79.90
49218;DHT22;35045;51.194;7.268;2022-08-19T14:55:53;28.60;80.10
49218;DHT22;35045;51.194;7.268;2022-08-19T14:58:18;28.30;81.10
49218;DHT22;35045;51.194;7.268;2022-08-19T15:00:44;28.00;81.70
49218;DHT22;35045;51.194;7.268;2022-08-19T15:03:09;27.70;81.70
49218;DHT22;35045;51.194;7.268;2022-08-19T15:05:34;27.40;82.80
49218;DHT22;35045;51.194;7.268;2022-08-19T15:08:03;27.20;83.50
49218;DHT22;35045;51.194;7.268;2022-08-19T15:10:28;26.90;83.70
49218;DHT22;35045;51.194;7.268;2022-08-19T15:12:53;26.80;84.60
49218;DHT22;35045;51.194;7.268;2022-08-19T15:15:19;26.80;85.10
49218;DHT22;35045;51.194;7.268;2022-08-19T15:17:44;27.00;85.00
49218;DHT22;35045;51.194;7.268;2022-08-19T15:20:13;27.30;85.50
49218;DHT22;35045;51.194;7.268;2022-08-19T15:22:39;28.60;83.00
49218;DHT22;35045;51.194;7.268;2022-08-19T15:25:06;30.00;81.40
49218;DHT22;35045;51.194;7.268;2022-08-19T15:27:31;31.40;78.00
49218;DHT22;35045;51.194;7.268;2022-08-19T15:29:56;31.80;76.00
49218;DHT22;35045;51.194;7.268;2022-08-19T15:32:22;31.10;75.70
49218;DHT22;35045;51.194;7.268;2022-08-19T15:34:47;31.40;75.40
49218;DHT22;35045;51.194;7.268;2022-08-19T15:37:13;32.30;73.90
49218;DHT22;35045;51.194;7.268;2022-08-19T15:39:38;32.80;72.00